Time;durP1;ratioP1;P1;durP2;ratioP2;P2;SDS_P1;SDS_P2;PMS_P1;PMS_P2;Temp;Humidity;BMP_temperature;BMP_pressure;BME280_temperature;BME280_humidity;BME280_pressure;Samples;Min_cycle;Max_cycle;Signal;HPM_P1;HPM_P2
2022/11/27 00:01:31;;;;;;;2.80;2.03;;;20.80;87.60;;;;;;4994554;28;20571;-81
2022/11/27 00:03:58;;;;;;;2.60;2.08;;;20.80;87.60;;;;;;4999110;28;20193;-80
2022/11/27 00:06:28;;;;;;;3.45;2.20;;;20.80;87.50;;;;;;4991243;28;20220;-77
2022/11/27 00:08:56;;;;;;;3.40;2.33;;;20.80;87.50;;;;;;5002760;28;20205;-79
2022/11/27 00:11:25;;;;;;;2.25;1.80;;;20.80;87.30;;;;;;4998433;28;20205;-77
2022/11/27 00:13:52;;;;;;;2.55;2.15;;;20.80;87.20;;;;;;4995463;28;20213;-82
2022/11/27 00:16:21;;;;;;;2.13;1.73;;;20.80;87.10;;;;;;4981840;28;20868;-78
2022/11/27 00:18:49;;;;;;;1.95;1.52;;;20.80;87.20;;;;;;4993735;28;20220;-78
2022/11/27 00:21:21;;;;;;;2.58;2.25;;;20.80;87.20;;;;;;4997772;28;20212;-78
2022/11/27 00:23:48;;;;;;;3.85;2.60;;;20.80;87.10;;;;;;4996019;28;20239;-79
2022/11/27 00:26:15;;;;;;;2.60;2.40;;;20.80;86.80;;;;;;4990248;28;20208;-78
2022/11/27 00:28:42;;;;;;;2.33;2.13;;;20.80;87.10;;;;;;4983013;28;20672;-78
2022/11/27 00:31:13;;;;;;;2.20;1.85;;;20.70;87.30;;;;;;4984805;28;20236;-81
2022/11/27 00:33:40;;;;;;;8.45;2.25;;;20.80;87.50;;;;;;4988563;28;20217;-79
2022/11/27 00:36:09;;;;;;;8.75;2.47;;;20.80;87.70;;;;;;4989946;28;20204;-78
2022/11/27 00:38:37;;;;;;;3.78;2.33;;;20.80;87.60;;;;;;4990967;28;20208;-78
2022/11/27 00:41:06;;;;;;;4.22;2.33;;;20.80;87.30;;;;;;4993449;28;20628;-79
2022/11/27 00:43:33;;;;;;;3.78;2.42;;;20.80;87.10;;;;;;4991943;28;20197;-79
2022/11/27 00:46:00;;;;;;;4.82;2.50;;;20.80;87.00;;;;;;4996268;28;20232;-76
2022/11/27 00:48:26;;;;;;;3.10;1.70;;;20.80;86.80;;;;;;4990535;28;20216;-77
2022/11/27 00:50:59;;;;;;;3.13;2.47;;;20.80;86.70;;;;;;4998384;28;20223;-76
2022/11/27 00:53:27;;;;;;;2.30;2.10;;;20.80;86.80;;;;;;4994566;28;20621;-76
2022/11/27 00:55:53;;;;;;;2.97;2.55;;;20.70;87.10;;;;;;4993906;28;20220;-77
2022/11/27 00:58:20;;;;;;;2.72;2.00;;;20.80;87.10;;;;;;4994160;28;20205;-77
2022/11/27 01:00:53;;;;;;;6.60;2.25;;;20.80;86.80;;;;;;4996810;28;20197;-77
2022/11/27 01:03:20;;;;;;;2.35;2.05;;;20.90;86.50;;;;;;4992392;28;20656;-77
2022/11/27 01:05:47;;;;;;;2.58;2.22;;;20.80;86.50;;;;;;5000706;28;20235;-76
2022/11/27 01:08:14;;;;;;;2.00;1.80;;;20.80;86.60;;;;;;4995432;28;20219;-77
2022/11/27 01:10:48;;;;;;;2.35;2.15;;;20.80;86.50;;;;;;4993257;28;20587;-78
2022/11/27 01:13:15;;;;;;;1.90;1.75;;;20.70;86.40;;;;;;5010676;28;20694;-77
2022/11/27 01:15:42;;;;;;;2.67;2.00;;;20.70;86.40;;;;;;4994827;28;20723;-75
2022/11/27 01:18:08;;;;;;;2.50;1.70;;;20.80;86.20;;;;;;5003041;28;20209;-78
2022/11/27 01:20:38;;;;;;;2.80;2.53;;;20.80;86.10;;;;;;4990747;28;20946;-76
2022/11/27 01:23:06;;;;;;;3.75;2.50;;;20.70;86.30;;;;;;4986247;28;20232;-77
2022/11/27 01:25:34;;;;;;;3.15;2.28;;;20.70;86.60;;;;;;4985558;28;20852;-78
2022/11/27 01:28:02;;;;;;;2.75;1.90;;;20.70;86.80;;;;;;4994305;28;20212;-78
2022/11/27 01:30:30;;;;;;;3.63;2.70;;;20.80;86.60;;;;;;4993146;28;20193;-76
2022/11/27 01:32:57;;;;;;;3.65;1.48;;;20.80;86.40;;;;;;4993594;28;20212;-77
2022/11/27 01:35:24;;;;;;;3.65;2.53;;;20.80;86.30;;;;;;4996084;28;20208;-77
2022/11/27 01:37:51;;;;;;;2.95;1.77;;;20.80;86.20;;;;;;4995272;28;20196;-79
2022/11/27 01:40:17;;;;;;;3.83;2.20;;;20.80;86.20;;;;;;5000111;28;20698;-77
2022/11/27 01:42:44;;;;;;;2.33;2.03;;;20.70;86.20;;;;;;4992030;28;20222;-77
2022/11/27 01:45:16;;;;;;;2.22;1.92;;;20.70;86.20;;;;;;4993848;28;20204;-78
2022/11/27 01:47:48;;;;;;;2.15;1.95;;;20.70;86.10;;;;;;5005244;28;20442;-77
2022/11/27 01:50:21;;;;;;;1.90;1.80;;;20.70;86.00;;;;;;4995330;28;20212;-76
2022/11/27 01:52:55;;;;;;;2.53;2.15;;;20.80;85.80;;;;;;4989717;28;20224;-76
2022/11/27 01:55:28;;;;;;;2.47;2.03;;;20.70;86.10;;;;;;4984318;28;20721;-76
2022/11/27 01:57:59;;;;;;;1.83;1.60;;;20.70;86.20;;;;;;4986079;28;20201;-77
2022/11/27 02:00:28;;;;;;;2.42;2.03;;;20.80;86.20;;;;;;4992024;28;20201;-77
2022/11/27 02:02:55;;;;;;;3.35;2.05;;;20.80;86.10;;;;;;4995287;28;20197;-75
2022/11/27 02:05:23;;;;;;;2.92;2.20;;;20.80;86.10;;;;;;4993269;28;20205;-77
2022/11/27 02:07:51;;;;;;;2.83;1.92;;;20.80;86.00;;;;;;4997866;28;20193;-77
2022/11/27 02:10:19;;;;;;;1.73;1.40;;;20.70;86.00;;;;;;4989969;28;20200;-76
2022/11/27 02:12:54;;;;;;;1.95;1.70;;;20.70;86.10;;;;;;5000121;28;20566;-78
2022/11/27 02:15:27;;;;;;;2.20;1.90;;;20.70;86.10;;;;;;4991550;28;20228;-77
2022/11/27 02:18:05;;;;;;;2.42;2.20;;;20.70;86.00;;;;;;4990737;28;20852;-77
2022/11/27 02:20:44;;;;;;;3.47;2.42;;;20.70;85.90;;;;;;4988576;28;20225;-77
2022/11/27 02:23:49;;;;;;;2.40;2.20;;;20.70;86.30;;;;;;5005827;28;20258;-76
2022/11/27 02:26:55;;;;;;;3.03;1.90;;;20.70;86.40;;;;;;4923482;28;20209;-77
2022/11/27 02:29:26;;;;;;;2.90;2.25;;;20.70;86.20;;;;;;4992312;28;20197;-77
2022/11/27 02:31:58;;;;;;;2.28;2.05;;;20.80;86.10;;;;;;4992003;28;20201;-77
2022/11/27 02:34:30;;;;;;;2.80;2.20;;;20.70;85.90;;;;;;4996113;28;20248;-77
2022/11/27 02:37:02;;;;;;;1.83;1.63;;;20.80;85.80;;;;;;4983096;28;20196;-76
2022/11/27 02:39:34;;;;;;;1.80;1.60;;;20.70;85.80;;;;;;4996470;28;20204;-77
2022/11/27 02:42:09;;;;;;;1.80;1.70;;;20.70;85.90;;;;;;4993129;28;20291;-76
2022/11/27 02:44:42;;;;;;;2.42;2.22;;;20.70;86.00;;;;;;4992969;28;20551;-75
2022/11/27 02:47:09;;;;;;;1.83;1.73;;;20.70;85.90;;;;;;4987672;28;20201;-77
2022/11/27 02:49:40;;;;;;;2.58;1.88;;;20.70;85.90;;;;;;4992220;28;20205;-77
2022/11/27 02:52:07;;;;;;;3.15;1.90;;;20.70;86.10;;;;;;4989678;28;20306;-77
2022/11/27 02:54:34;;;;;;;2.25;2.00;;;20.70;86.20;;;;;;4997476;28;20717;-76
2022/11/27 02:57:04;;;;;;;2.00;1.50;;;20.70;86.10;;;;;;5004513;28;20226;-76
2022/11/27 02:59:33;;;;;;;1.92;1.73;;;20.80;85.90;;;;;;5000374;28;20201;-77
2022/11/27 03:02:05;;;;;;;1.87;1.70;;;20.80;85.70;;;;;;4988585;28;20568;-76
2022/11/27 03:04:36;;;;;;;2.00;1.75;;;20.70;85.70;;;;;;4987809;28;20456;-76
2022/11/27 03:07:07;;;;;;;2.70;1.93;;;20.70;85.60;;;;;;4993504;28;20199;-78
2022/11/27 03:09:36;;;;;;;2.22;2.03;;;20.70;85.70;;;;;;4998397;28;20939;-77
2022/11/27 03:12:05;;;;;;;1.50;1.40;;;20.70;85.90;;;;;;4991604;28;20234;-77
2022/11/27 03:14:34;;;;;;;2.55;1.80;;;20.70;85.90;;;;;;5000383;28;20689;-78
2022/11/27 03:17:11;;;;;;;2.30;1.90;;;20.60;85.80;;;;;;4994978;28;20220;-77
2022/11/27 03:19:43;;;;;;;1.90;1.65;;;20.70;85.90;;;;;;4995918;28;20196;-77
2022/11/27 03:22:11;;;;;;;1.98;1.77;;;20.60;86.00;;;;;;4998108;28;20714;-76
2022/11/27 03:24:38;;;;;;;2.60;1.50;;;20.60;86.20;;;;;;4988286;28;20197;-77
2022/11/27 03:27:05;;;;;;;2.67;2.00;;;20.70;86.00;;;;;;5000291;28;20585;-75
2022/11/27 03:29:39;;;;;;;1.75;1.65;;;20.70;85.90;;;;;;4991994;28;20197;-77
2022/11/27 03:32:07;;;;;;;1.70;1.55;;;20.70;86.00;;;;;;4988090;28;20205;-76
2022/11/27 03:34:34;;;;;;;2.25;2.03;;;20.70;85.70;;;;;;4985098;28;20232;-77
2022/11/27 03:37:02;;;;;;;1.55;1.45;;;20.70;85.60;;;;;;4992028;28;20197;-76
2022/11/27 03:39:30;;;;;;;1.92;1.70;;;20.70;85.70;;;;;;4990486;28;20193;-79
2022/11/27 03:42:05;;;;;;;2.65;2.20;;;20.60;85.70;;;;;;4985908;28;20197;-75
2022/11/27 03:44:39;;;;;;;2.30;2.10;;;20.60;85.80;;;;;;4989619;28;20189;-76
2022/11/27 03:47:18;;;;;;;1.73;1.60;;;20.60;85.80;;;;;;4998726;28;20201;-77
2022/11/27 03:50:00;;;;;;;1.92;1.70;;;20.60;85.90;;;;;;4995221;28;20201;-77
2022/11/27 03:52:37;;;;;;;2.17;1.87;;;20.60;86.20;;;;;;4995629;28;20576;-77
2022/11/27 03:55:11;;;;;;;1.73;1.60;;;20.60;86.00;;;;;;4980656;28;20484;-76
2022/11/27 03:57:43;;;;;;;1.52;1.35;;;20.70;86.00;;;;;;4984045;28;20190;-77
2022/11/27 04:00:11;;;;;;;2.28;1.60;;;20.70;85.70;;;;;;4990397;28;20200;-77
2022/11/27 04:02:42;;;;;;;2.25;1.90;;;20.70;85.50;;;;;;4987520;28;20204;-76
2022/11/27 04:05:10;;;;;;;2.00;1.73;;;20.70;85.60;;;;;;4989763;28;20244;-76
2022/11/27 04:07:37;;;;;;;2.20;1.98;;;20.70;85.60;;;;;;4991764;28;20201;-76
2022/11/27 04:10:05;;;;;;;1.40;1.30;;;20.60;85.60;;;;;;4985429;28;20682;-77
2022/11/27 04:12:32;;;;;;;1.30;1.20;;;20.60;85.70;;;;;;4999702;28;20204;-75
2022/11/27 04:14:59;;;;;;;1.75;1.48;;;20.60;85.70;;;;;;4992102;28;20692;-76
2022/11/27 04:17:26;;;;;;;1.65;1.40;;;20.60;85.80;;;;;;4994096;28;20200;-76
2022/11/27 04:19:54;;;;;;;3.00;1.73;;;20.60;85.70;;;;;;5005646;28;20201;-76
2022/11/27 04:22:21;;;;;;;2.13;1.83;;;20.70;85.70;;;;;;5000942;28;20212;-76
2022/11/27 04:24:47;;;;;;;1.45;1.35;;;20.70;85.50;;;;;;4992793;28;20212;-76
2022/11/27 04:27:14;;;;;;;2.10;1.63;;;20.60;85.60;;;;;;5001589;28;20200;-77
2022/11/27 04:29:41;;;;;;;1.60;1.50;;;20.60;85.60;;;;;;5008040;28;20219;-76
2022/11/27 04:32:08;;;;;;;1.73;1.40;;;20.60;85.70;;;;;;4997740;28;20655;-77
2022/11/27 04:34:35;;;;;;;2.10;1.67;;;20.60;85.70;;;;;;4992291;28;20221;-76
2022/11/27 04:37:03;;;;;;;2.17;1.80;;;20.50;85.60;;;;;;4999538;28;20197;-77
2022/11/27 04:39:30;;;;;;;2.00;1.65;;;20.50;85.60;;;;;;4986838;28;20208;-75
2022/11/27 04:41:56;;;;;;;1.80;1.70;;;20.60;85.60;;;;;;4994749;28;20671;-76
2022/11/27 04:44:23;;;;;;;2.20;2.00;;;20.60;85.70;;;;;;4995064;28;20537;-77
2022/11/27 04:46:50;;;;;;;1.88;1.60;;;20.50;85.80;;;;;;5000722;28;20204;-76
2022/11/27 04:49:16;;;;;;;2.00;1.90;;;20.50;86.00;;;;;;4996939;28;20645;-76
2022/11/27 04:51:44;;;;;;;2.20;1.55;;;20.50;85.90;;;;;;4993076;28;20212;-76
2022/11/27 04:54:12;;;;;;;2.38;1.48;;;20.60;85.70;;;;;;4998923;28;20216;-76
2022/11/27 04:56:39;;;;;;;1.50;1.40;;;20.70;85.80;;;;;;4998978;28;20204;-76
2022/11/27 04:59:06;;;;;;;2.20;1.60;;;20.80;85.50;;;;;;4995142;28;20669;-76
2022/11/27 05:01:32;;;;;;;1.60;1.50;;;20.80;85.40;;;;;;4993566;28;20205;-76
2022/11/27 05:03:59;;;;;;;1.48;1.30;;;20.80;85.30;;;;;;4995501;28;20460;-77
2022/11/27 05:06:27;;;;;;;1.52;1.40;;;20.90;85.30;;;;;;4994882;28;20201;-76
2022/11/27 05:08:58;;;;;;;2.07;1.70;;;20.90;85.30;;;;;;4991475;28;20198;-76
2022/11/27 05:11:27;;;;;;;2.35;1.25;;;20.90;85.10;;;;;;4993542;28;20456;-76
2022/11/27 05:14:13;;;;;;;1.70;1.30;;;21.00;85.10;;;;;;5002487;28;20197;-76
2022/11/27 05:16:41;;;;;;;1.40;1.30;;;21.00;85.00;;;;;;4991527;28;20259;-76
2022/11/27 05:19:09;;;;;;;2.05;1.30;;;21.00;84.90;;;;;;4993570;28;20213;-77
2022/11/27 05:21:35;;;;;;;1.80;1.60;;;21.00;84.70;;;;;;4991687;28;20228;-76
2022/11/27 05:24:03;;;;;;;1.73;1.13;;;21.10;84.70;;;;;;4994672;28;20964;-76
2022/11/27 05:26:31;;;;;;;2.10;1.40;;;21.10;84.50;;;;;;4990459;28;20211;-75
2022/11/27 05:28:57;;;;;;;2.03;1.77;;;21.10;84.50;;;;;;5002209;28;20463;-76
2022/11/27 05:31:25;;;;;;;1.40;1.30;;;21.10;84.50;;;;;;4996208;28;20477;-75
2022/11/27 05:33:52;;;;;;;2.00;1.60;;;21.10;84.40;;;;;;5003528;28;20459;-76
2022/11/27 05:36:18;;;;;;;1.50;1.40;;;21.10;84.30;;;;;;4988273;28;20484;-76
2022/11/27 05:38:45;;;;;;;2.13;1.53;;;21.10;84.30;;;;;;5006542;28;20503;-77
2022/11/27 05:41:12;;;;;;;1.87;1.40;;;21.10;84.50;;;;;;4986808;28;20827;-76
2022/11/27 05:43:40;;;;;;;2.07;1.27;;;21.10;84.60;;;;;;5000651;28;20452;-76
2022/11/27 05:46:08;;;;;;;2.20;1.50;;;21.00;84.50;;;;;;4990704;28;20518;-75
2022/11/27 05:48:35;;;;;;;1.87;1.47;;;21.00;84.50;;;;;;4995459;28;20482;-76
2022/11/27 05:51:03;;;;;;;1.57;1.47;;;21.00;84.60;;;;;;4987011;28;20464;-76
2022/11/27 05:53:30;;;;;;;1.73;1.20;;;21.00;84.50;;;;;;4992367;28;20919;-76
2022/11/27 05:56:01;;;;;;;2.37;1.50;;;21.00;84.50;;;;;;4991352;28;20475;-76
2022/11/27 05:58:28;;;;;;;1.50;1.30;;;21.00;84.50;;;;;;4988187;28;20831;-77
2022/11/27 06:00:56;;;;;;;1.37;1.13;;;21.00;84.60;;;;;;5001732;28;20490;-76
2022/11/27 06:03:23;;;;;;;1.60;1.50;;;21.00;84.50;;;;;;4994412;28;20468;-76
2022/11/27 06:05:49;;;;;;;1.50;1.40;;;21.00;84.50;;;;;;4992407;28;20463;-79
2022/11/27 06:08:18;;;;;;;1.60;1.20;;;21.00;84.50;;;;;;4992806;28;20942;-77
2022/11/27 06:10:45;;;;;;;2.00;1.80;;;21.00;84.50;;;;;;4991102;28;20977;-76
2022/11/27 06:13:12;;;;;;;1.52;1.40;;;21.00;84.70;;;;;;4994633;28;20972;-77
2022/11/27 06:15:42;;;;;;;1.20;1.10;;;21.00;84.70;;;;;;4992413;28;20227;-76
2022/11/27 06:18:12;;;;;;;1.47;1.37;;;21.00;84.70;;;;;;4998762;28;20459;-76
2022/11/27 06:20:39;;;;;;;1.83;1.40;;;21.00;84.70;;;;;;4994713;28;20469;-76
2022/11/27 06:23:06;;;;;;;1.63;1.30;;;21.00;84.70;;;;;;4995007;28;20456;-75
2022/11/27 06:25:32;;;;;;;1.57;1.47;;;21.00;84.70;;;;;;4984611;28;20986;-77
2022/11/27 06:27:59;;;;;;;1.80;1.60;;;21.00;84.60;;;;;;5003774;28;20447;-77
2022/11/27 06:30:26;;;;;;;1.20;1.10;;;21.00;84.50;;;;;;4992595;28;20987;-76
2022/11/27 06:32:52;;;;;;;1.43;1.30;;;21.00;84.30;;;;;;4994241;28;20462;-77
2022/11/27 06:35:21;;;;;;;1.40;1.30;;;21.00;84.30;;;;;;5000225;28;20491;-76
2022/11/27 06:37:48;;;;;;;1.80;1.30;;;21.00;84.40;;;;;;4985825;28;20468;-77
2022/11/27 06:40:15;;;;;;;1.53;1.43;;;21.00;84.40;;;;;;4990483;28;20452;-76
2022/11/27 06:42:41;;;;;;;1.43;1.10;;;21.00;85.30;;;;;;4997669;28;20459;-76
2022/11/27 06:45:09;;;;;;;1.63;1.53;;;21.00;84.50;;;;;;4995658;28;20460;-79
2022/11/27 06:47:36;;;;;;;1.33;1.20;;;21.00;84.40;;;;;;5001390;28;20464;-77
2022/11/27 06:50:03;;;;;;;1.40;1.30;;;21.00;84.50;;;;;;4995662;28;20829;-76
2022/11/27 06:52:31;;;;;;;1.93;1.13;;;21.00;84.50;;;;;;5001736;28;20803;-76
2022/11/27 06:54:58;;;;;;;1.30;1.20;;;21.00;85.30;;;;;;4985519;28;20507;-76
2022/11/27 06:57:25;;;;;;;1.27;1.10;;;21.00;84.40;;;;;;4999204;28;20470;-76
2022/11/27 06:59:52;;;;;;;1.60;1.40;;;21.10;84.40;;;;;;4993540;28;20578;-76
2022/11/27 07:02:18;;;;;;;1.10;0.97;;;21.10;84.30;;;;;;4995591;28;20472;-76
2022/11/27 07:04:45;;;;;;;1.63;1.13;;;21.10;84.30;;;;;;5001679;28;20853;-76
2022/11/27 07:07:12;;;;;;;1.50;1.20;;;21.10;84.30;;;;;;5005181;28;20830;-76
2022/11/27 07:09:40;;;;;;;1.50;1.33;;;21.10;84.30;;;;;;4997679;28;20858;-76
2022/11/27 07:12:07;;;;;;;1.50;1.20;;;21.10;84.30;;;;;;4990747;28;20464;-76
2022/11/27 07:14:34;;;;;;;1.23;0.97;;;21.00;84.20;;;;;;5000853;28;20498;-76
2022/11/27 07:17:02;;;;;;;1.40;1.20;;;21.00;84.30;;;;;;4993130;28;20482;-76
2022/11/27 07:19:28;;;;;;;1.57;1.10;;;21.00;84.40;;;;;;4993180;28;20469;-76
2022/11/27 07:21:55;;;;;;;1.37;1.27;;;21.00;84.30;;;;;;4989105;28;20467;-78
2022/11/27 07:24:22;;;;;;;1.67;1.57;;;21.00;84.30;;;;;;4991953;28;20829;-76
2022/11/27 07:26:50;;;;;;;1.40;1.10;;;21.00;84.30;;;;;;4988790;28;20461;-76
2022/11/27 07:29:17;;;;;;;1.50;1.20;;;21.00;84.20;;;;;;5002485;28;20464;-78
2022/11/27 07:31:43;;;;;;;1.60;1.50;;;21.00;84.20;;;;;;4989287;28;20460;-79
2022/11/27 07:34:10;;;;;;;1.97;1.20;;;21.10;84.20;;;;;;4986849;28;20548;-76
2022/11/27 07:36:37;;;;;;;1.40;1.10;;;21.10;85.00;;;;;;4999692;28;20495;-76
2022/11/27 07:39:04;;;;;;;2.67;1.67;;;21.00;84.20;;;;;;4988575;28;20460;-77
2022/11/27 07:41:30;;;;;;;1.40;1.30;;;21.00;84.20;;;;;;4998062;28;20823;-77
2022/11/27 07:43:59;;;;;;;1.50;1.33;;;21.00;84.20;;;;;;4988227;28;20452;-77
2022/11/27 07:46:25;;;;;;;1.83;1.10;;;21.00;84.20;;;;;;4988174;28;20448;-76
2022/11/27 07:48:52;;;;;;;2.00;1.20;;;21.00;84.30;;;;;;4987777;28;20974;-77
2022/11/27 07:51:21;;;;;;;1.70;1.60;;;21.00;84.30;;;;;;4988831;28;20903;-76
2022/11/27 07:53:50;;;;;;;1.40;1.30;;;21.00;84.20;;;;;;5007999;28;20554;-77
2022/11/27 07:56:19;;;;;;;1.30;1.20;;;21.00;84.30;;;;;;4989465;28;20535;-76
2022/11/27 07:58:46;;;;;;;1.57;1.20;;;21.00;84.30;;;;;;4988949;28;21123;-76
2022/11/27 08:01:16;;;;;;;1.57;1.23;;;21.00;84.30;;;;;;4987603;28;20469;-77
2022/11/27 08:03:44;;;;;;;1.30;1.20;;;21.00;84.20;;;;;;4988395;28;20460;-76
2022/11/27 08:06:15;;;;;;;1.40;1.00;;;21.00;84.20;;;;;;4993563;28;20456;-77
2022/11/27 08:08:43;;;;;;;1.77;1.20;;;21.00;84.10;;;;;;4989260;28;20827;-77
2022/11/27 08:11:17;;;;;;;1.43;1.13;;;21.00;84.20;;;;;;4984429;28;20931;-78
2022/11/27 08:13:44;;;;;;;1.10;1.00;;;21.00;84.10;;;;;;4988209;28;20494;-76
2022/11/27 08:16:11;;;;;;;1.50;1.37;;;21.00;84.10;;;;;;5005864;28;20483;-76
2022/11/27 08:18:39;;;;;;;1.70;1.40;;;21.00;84.30;;;;;;4996082;28;20826;-77
2022/11/27 08:21:06;;;;;;;1.33;1.10;;;21.00;84.20;;;;;;4980341;28;20206;-77
2022/11/27 08:23:32;;;;;;;1.20;1.10;;;21.00;84.20;;;;;;4985013;28;20451;-78
2022/11/27 08:25:59;;;;;;;1.30;1.00;;;21.00;84.20;;;;;;4979485;28;20459;-76
2022/11/27 08:28:27;;;;;;;1.50;1.40;;;21.00;84.20;;;;;;4994292;28;20444;-76
2022/11/27 08:30:58;;;;;;;1.30;1.10;;;21.00;84.20;;;;;;4983166;28;20455;-76
2022/11/27 08:33:24;;;;;;;1.35;1.25;;;21.00;84.00;;;;;;4990237;28;20824;-77
2022/11/27 08:35:53;;;;;;;1.30;1.10;;;21.00;84.00;;;;;;4990666;28;20220;-78
2022/11/27 08:38:20;;;;;;;1.00;0.90;;;21.00;84.20;;;;;;4987931;28;20484;-76
2022/11/27 08:40:54;;;;;;;1.80;1.20;;;21.00;84.10;;;;;;4987776;28;20479;-77
2022/11/27 08:43:21;;;;;;;1.20;1.10;;;21.00;84.20;;;;;;4988982;28;20458;-78
2022/11/27 08:45:48;;;;;;;1.40;1.20;;;21.00;84.20;;;;;;4983945;28;20460;-77
2022/11/27 08:48:15;;;;;;;1.25;1.15;;;21.00;84.20;;;;;;4983345;28;20464;-77
2022/11/27 08:50:41;;;;;;;1.63;1.10;;;21.00;84.30;;;;;;4985940;28;20573;-76
2022/11/27 08:53:10;;;;;;;1.20;1.00;;;21.00;84.30;;;;;;5001357;28;20463;-76
2022/11/27 08:55:36;;;;;;;1.40;1.27;;;21.00;84.40;;;;;;4988227;28;20475;-77
2022/11/27 08:58:04;;;;;;;1.43;1.20;;;21.00;84.30;;;;;;4991424;28;20554;-77
2022/11/27 09:00:31;;;;;;;1.77;1.27;;;21.00;84.30;;;;;;4985485;28;20472;-78
2022/11/27 09:02:58;;;;;;;1.30;1.00;;;21.00;84.30;;;;;;4987668;28;20465;-77
2022/11/27 09:05:25;;;;;;;1.30;1.00;;;21.00;84.20;;;;;;4977182;28;20453;-78
2022/11/27 09:07:52;;;;;;;1.27;1.17;;;21.00;84.20;;;;;;4982738;28;20472;-79
2022/11/27 09:10:21;;;;;;;1.10;1.00;;;21.00;84.30;;;;;;4992346;28;20955;-77
2022/11/27 09:12:48;;;;;;;4.15;1.17;;;21.00;84.20;;;;;;4993604;28;20966;-78
2022/11/27 09:15:16;;;;;;;1.50;1.20;;;21.00;84.90;;;;;;4996998;28;20221;-78
2022/11/27 09:17:42;;;;;;;2.70;1.00;;;20.90;89.10;;;;;;4992764;28;20506;-76
2022/11/27 09:20:13;;;;;;;1.67;1.10;;;20.90;87.40;;;;;;4986977;28;20971;-75
2022/11/27 09:22:40;;;;;;;1.30;1.20;;;20.80;87.90;;;;;;4993355;28;20511;-78
2022/11/27 09:25:08;;;;;;;5.90;1.47;;;20.90;87.60;;;;;;4993929;28;20974;-78
2022/11/27 09:27:36;;;;;;;10.80;1.40;;;20.90;87.50;;;;;;4995349;28;20452;-77
2022/11/27 09:30:04;;;;;;;1.20;1.07;;;21.00;88.20;;;;;;4996651;28;20459;-77
2022/11/27 09:32:31;;;;;;;2.37;1.30;;;21.00;88.20;;;;;;4992369;28;20461;-76
2022/11/27 09:34:58;;;;;;;7.35;1.98;;;21.10;88.00;;;;;;4989713;28;20959;-77
2022/11/27 09:37:24;;;;;;;2.97;2.00;;;21.10;88.10;;;;;;4989839;28;20247;-77
2022/11/27 09:39:51;;;;;;;2.40;1.40;;;21.00;87.70;;;;;;4989833;28;20482;-76
2022/11/27 09:42:35;;;;;;;1.80;1.70;;;21.00;87.30;;;;;;4993604;28;20467;-77
2022/11/27 09:45:07;;;;;;;3.90;1.60;;;21.00;87.60;;;;;;4992318;28;20460;-76
2022/11/27 09:47:40;;;;;;;3.80;1.70;;;21.00;87.50;;;;;;4998823;28;20451;-76
2022/11/27 09:50:13;;;;;;;2.47;2.13;;;21.00;87.00;;;;;;4991651;28;20880;-76
2022/11/27 09:52:42;;;;;;;2.20;1.67;;;21.00;87.40;;;;;;4986953;28;20839;-77
2022/11/27 09:55:15;;;;;;;5.07;1.80;;;21.00;86.50;;;;;;4995720;28;20462;-78
2022/11/27 09:57:44;;;;;;;1.33;1.23;;;21.00;86.40;;;;;;4989419;28;20479;-76
2022/11/27 10:00:15;;;;;;;1.63;1.50;;;21.00;86.10;;;;;;5008661;28;20470;-78
2022/11/27 10:02:42;;;;;;;4.50;1.60;;;21.00;85.90;;;;;;4998816;28;20452;-77
2022/11/27 10:05:17;;;;;;;6.10;1.73;;;21.00;85.90;;;;;;4995979;28;20475;-75
2022/11/27 10:07:58;;;;;;;4.50;1.77;;;21.00;85.90;;;;;;4994100;28;20466;-77
2022/11/27 10:10:35;;;;;;;3.93;1.47;;;21.00;85.70;;;;;;4998572;28;21081;-77
2022/11/27 10:13:10;;;;;;;1.63;1.20;;;21.00;85.60;;;;;;4991951;28;20462;-78
2022/11/27 10:15:46;;;;;;;2.40;1.70;;;21.00;85.50;;;;;;4987694;28;20494;-77
2022/11/27 10:18:19;;;;;;;1.77;1.63;;;21.00;85.50;;;;;;4987890;28;20487;-77
2022/11/27 10:20:50;;;;;;;1.60;1.50;;;21.00;85.50;;;;;;4997440;28;20498;-76
2022/11/27 10:23:27;;;;;;;1.60;1.50;;;21.00;85.50;;;;;;5003218;28;20463;-77
2022/11/27 10:26:00;;;;;;;2.23;1.60;;;20.90;85.40;;;;;;4989484;28;20459;-77
2022/11/27 10:28:35;;;;;;;1.80;1.33;;;20.90;85.40;;;;;;4989710;28;20515;-75
2022/11/27 10:31:11;;;;;;;3.30;2.20;;;20.90;86.00;;;;;;4988770;28;20550;-74
2022/11/27 10:33:43;;;;;;;4.87;2.67;;;20.60;77.90;;;;;;4986409;28;20461;-74
2022/11/27 10:36:14;;;;;;;3.90;2.27;;;20.50;79.00;;;;;;4999764;28;20986;-75
2022/11/27 10:38:42;;;;;;;4.63;1.90;;;20.50;79.80;;;;;;4991191;28;20444;-76
2022/11/27 10:41:15;;;;;;;2.30;1.95;;;20.60;81.50;;;;;;4984111;28;20483;-77
2022/11/27 10:43:42;;;;;;;1.93;1.73;;;20.80;81.60;;;;;;4987643;28;20209;-77
2022/11/27 10:46:24;;;;;;;6.43;2.70;;;20.80;82.80;;;;;;4986802;28;20457;-80
2022/11/27 10:48:50;;;;;;;3.43;1.83;;;20.80;82.80;;;;;;4984955;28;20468;-78
2022/11/27 10:51:19;;;;;;;4.17;2.10;;;21.00;82.70;;;;;;4990745;28;20461;-80
2022/11/27 10:53:50;;;;;;;1.70;1.60;;;21.10;82.80;;;;;;4990099;28;20456;-80
2022/11/27 10:56:44;;;;;;;1.57;1.47;;;21.30;82.60;;;;;;5002530;28;20882;-81
2022/11/27 10:59:13;;;;;;;2.97;1.48;;;21.30;82.50;;;;;;4999225;28;20462;-81
2022/11/27 11:01:46;;;;;;;2.13;1.60;;;21.40;82.70;;;;;;4985063;28;20216;-78
2022/11/27 11:04:14;;;;;;;1.77;1.50;;;21.40;82.90;;;;;;4975859;28;20208;-79
2022/11/27 11:06:44;;;;;;;2.47;1.60;;;21.40;82.90;;;;;;4988799;28;20211;-79
2022/11/27 11:09:16;;;;;;;1.43;1.33;;;21.50;83.00;;;;;;4988322;28;20456;-80
2022/11/27 11:11:43;;;;;;;2.90;1.77;;;21.50;83.10;;;;;;4980885;28;20452;-79
2022/11/27 11:14:22;;;;;;;2.80;1.37;;;21.50;83.30;;;;;;4981222;28;20460;-80
2022/11/27 11:16:51;;;;;;;2.27;1.50;;;21.50;83.40;;;;;;4977689;28;20487;-81
2022/11/27 11:19:25;;;;;;;2.93;1.60;;;21.50;83.40;;;;;;4981015;28;20464;-80
2022/11/27 11:21:52;;;;;;;1.63;1.33;;;21.50;83.50;;;;;;4979516;28;20832;-80
2022/11/27 11:24:25;;;;;;;3.00;1.90;;;21.60;83.70;;;;;;4981003;28;20448;-79
2022/11/27 11:26:55;;;;;;;2.20;1.53;;;21.60;83.70;;;;;;4982167;28;20511;-80
2022/11/27 11:29:30;;;;;;;2.00;1.80;;;21.60;83.70;;;;;;4984201;28;20461;-80
2022/11/27 11:32:06;;;;;;;1.73;1.63;;;21.60;83.70;;;;;;4979572;28;22498;-79
2022/11/27 11:34:33;;;;;;;1.90;1.60;;;21.70;83.80;;;;;;4980274;28;20452;-80
2022/11/27 11:37:02;;;;;;;1.90;1.70;;;21.70;83.70;;;;;;4987407;28;20519;-80
2022/11/27 11:39:30;;;;;;;1.33;1.23;;;21.60;83.60;;;;;;4990215;28;20475;-81
2022/11/27 11:41:57;;;;;;;1.60;1.40;;;21.70;83.80;;;;;;4992627;28;20460;-81
2022/11/27 11:44:32;;;;;;;3.90;1.50;;;21.70;83.90;;;;;;4982503;28;20452;-80
2022/11/27 11:47:00;;;;;;;1.90;1.63;;;21.80;83.70;;;;;;4978969;28;20462;-82
2022/11/27 11:49:28;;;;;;;1.97;1.60;;;21.70;83.60;;;;;;4977120;28;20724;-84
2022/11/27 11:52:21;;;;;;;3.30;1.30;;;21.70;83.80;;;;;;4976303;28;20464;-79
2022/11/27 11:54:55;;;;;;;1.67;1.43;;;21.70;84.00;;;;;;4982321;28;20515;-83
2022/11/27 11:57:51;;;;;;;2.83;1.60;;;21.60;84.10;;;;;;4982451;28;21028;-80
2022/11/27 12:00:21;;;;;;;2.07;1.40;;;21.60;84.40;;;;;;4982714;28;20460;-82
2022/11/27 12:03:07;;;;;;;2.33;1.60;;;21.60;85.20;;;;;;4981924;28;20468;-83
2022/11/27 12:05:41;;;;;;;1.80;1.30;;;21.60;84.50;;;;;;4988549;28;20468;-82
2022/11/27 12:08:37;;;;;;;2.03;1.47;;;21.70;84.40;;;;;;4989893;28;20981;-83
2022/11/27 12:11:11;;;;;;;1.20;1.10;;;21.70;84.50;;;;;;4984844;28;20468;-81
2022/11/27 12:14:11;;;;;;;1.27;1.17;;;21.80;84.30;;;;;;4987675;28;20463;-82
2022/11/27 12:16:50;;;;;;;1.70;1.20;;;21.70;84.20;;;;;;4944921;28;20497;-82
2022/11/27 12:19:40;;;;;;;1.37;1.20;;;21.70;84.40;;;;;;4985176;28;20448;-82
2022/11/27 12:22:18;;;;;;;1.70;1.40;;;21.80;84.40;;;;;;4981777;28;20460;-81
2022/11/27 12:24:55;;;;;;;1.83;1.33;;;21.70;84.20;;;;;;4988971;28;21014;-81
2022/11/27 12:27:32;;;;;;;1.13;1.00;;;21.70;84.60;;;;;;4990105;28;20463;-81
2022/11/27 12:30:12;;;;;;;1.60;1.40;;;21.60;85.00;;;;;;4984363;28;20471;-81
2022/11/27 12:33:07;;;;;;;2.00;1.30;;;21.70;84.90;;;;;;4981350;28;20467;-81
2022/11/27 12:35:41;;;;;;;1.73;1.63;;;21.80;84.60;;;;;;4991603;28;20467;-82
2022/11/27 12:38:39;;;;;;;1.67;1.57;;;21.70;84.70;;;;;;4991279;28;20515;-80
2022/11/27 12:41:28;;;;;;;2.77;1.57;;;21.70;84.80;;;;;;4985107;28;20971;-81
2022/11/27 12:43:59;;;;;;;1.83;1.67;;;21.80;84.70;;;;;;4994299;28;20444;-83
2022/11/27 12:46:33;;;;;;;1.60;1.30;;;21.70;84.80;;;;;;4992416;28;20462;-83
2022/11/27 12:49:10;;;;;;;2.40;1.60;;;21.70;85.00;;;;;;4989116;28;20446;-82
2022/11/27 12:51:43;;;;;;;1.70;1.30;;;21.70;85.00;;;;;;4992597;28;20486;-84
2022/11/27 12:54:14;;;;;;;1.60;1.40;;;21.70;85.00;;;;;;4990700;28;20464;-83
2022/11/27 12:56:45;;;;;;;1.97;1.60;;;21.80;84.90;;;;;;4993436;28;20800;-81
2022/11/27 12:59:18;;;;;;;2.13;1.70;;;21.80;84.90;;;;;;4997783;28;20993;-82
2022/11/27 13:01:48;;;;;;;1.70;1.57;;;21.80;85.00;;;;;;5001494;28;20986;-83
2022/11/27 13:04:23;;;;;;;1.60;1.50;;;21.80;84.90;;;;;;4993845;28;20461;-84